Time;durP1;ratioP1;P1;durP2;ratioP2;P2;SDS_P1;SDS_P2;PMS_P1;PMS_P2;Temp;Humidity;BMP_temperature;BMP_pressure;BME280_temperature;BME280_humidity;BME280_pressure;Samples;Min_cycle;Max_cycle;Signal;HPM_P1;HPM_P2
2023/08/24 00:00:55;;;;;;;;;;;;;;;-140.72;100.00;52508.56;6274584;22;19919;-68
2023/08/24 00:03:23;;;;;;;;;;;;;;;-140.72;100.00;52508.56;6274479;22;19936;-68
2023/08/24 00:05:49;;;;;;;;;;;;;;;-140.72;100.00;52553.19;6275579;22;19919;-68
2023/08/24 00:08:14;;;;;;;;;;;;;;;-140.72;100.00;52512.59;6276038;22;19911;-69
2023/08/24 00:10:39;;;;;;;;;;;;;;;-140.72;100.00;52512.59;6275852;22;19947;-69
2023/08/24 00:13:05;;;;;;;;;;;;;;;-140.72;100.00;52496.38;6275636;22;19911;-69
2023/08/24 00:15:30;;;;;;;;;;;;;;;-140.72;100.00;52534.94;6275120;22;20344;-69
2023/08/24 00:17:56;;;;;;;;;;;;;;;-140.72;100.00;52500.44;6275555;22;19911;-69
2023/08/24 00:20:21;;;;;;;;;;;;;;;-140.72;100.00;52526.81;6275450;22;19915;-69
2023/08/24 00:22:46;;;;;;;;;;;;;;;-140.72;100.00;52551.16;6275592;22;20264;-69
2023/08/24 00:25:12;;;;;;;;;;;;;;;-140.72;100.00;52506.53;6276376;22;19954;-69
2023/08/24 00:27:37;;;;;;;;;;;;;;;-140.72;100.00;52541.03;6277296;22;19989;-69
2023/08/24 00:30:04;;;;;;;;;;;;;;;-140.72;100.00;52526.81;6277585;22;20324;-69
2023/08/24 00:32:34;;;;;;;;;;;;;;;-140.72;100.00;52524.78;6276754;22;20443;-69
2023/08/24 00:35:00;;;;;;;;;;;;;;;-140.72;100.00;52547.09;6277392;22;20390;-69
2023/08/24 00:37:26;;;;;;;;;;;;;;;-140.72;100.00;52559.28;6276129;22;19936;-69
2023/08/24 00:39:51;;;;;;;;;;;;;;;-140.72;100.00;52559.28;6277312;22;19912;-69
2023/08/24 00:42:16;;;;;;;;;;;;;;;-140.72;100.00;52571.47;6277347;22;19961;-69
2023/08/24 00:44:43;;;;;;;;;;;;;;;-140.72;100.00;52528.84;6275272;22;19960;-69
2023/08/24 00:47:10;;;;;;;;;;;;;;;-140.72;100.00;52530.88;6275011;22;19923;-69
2023/08/24 00:49:35;;;;;;;;;;;;;;;-140.72;100.00;52516.66;6276734;22;19943;-69
2023/08/24 00:52:01;;;;;;;;;;;;;;;-140.72;100.00;52524.78;6277673;22;20391;-69
2023/08/24 00:54:30;;;;;;;;;;;;;;;-140.72;100.00;52506.53;6277295;22;19922;-69
2023/08/24 00:56:55;;;;;;;;;;;;;;;-140.72;100.00;52500.44;6277510;22;19911;-69
2023/08/24 00:59:21;;;;;;;;;;;;;;;-140.72;100.00;52561.31;6277152;22;19933;-68
2023/08/24 01:01:47;;;;;;;;;;;;;;;-140.72;100.00;52563.34;6276940;22;19955;-69
2023/08/24 01:04:12;;;;;;;;;;;;;;;-140.72;100.00;52536.97;6277142;22;20053;-69
2023/08/24 01:06:37;;;;;;;;;;;;;;;-140.72;100.00;52543.03;6277048;22;20316;-69
2023/08/24 01:09:03;;;;;;;;;;;;;;;-140.72;100.00;52520.72;6276895;22;20244;-69
2023/08/24 01:11:46;;;;;;;;;;;;;;;-140.72;100.00;52553.19;6277247;22;19913;-69
2023/08/24 01:14:14;;;;;;;;;;;;;;;-140.72;100.00;52536.97;6276784;22;19922;-69
2023/08/24 01:16:42;;;;;;;;;;;;;;;-140.72;100.00;52524.78;6275835;22;19943;-69
2023/08/24 01:19:25;;;;;;;;;;;;;;;-140.72;100.00;52557.25;6301243;22;19916;-69
2023/08/24 01:21:51;;;;;;;;;;;;;;;-140.72;100.00;52528.84;6249772;22;19911;-69
2023/08/24 01:24:27;;;;;;;;;;;;;;;-140.72;100.00;52545.06;6276131;22;20062;-69
2023/08/24 01:26:54;;;;;;;;;;;;;;;-140.72;100.00;52557.25;6276850;22;19915;-69
2023/08/24 01:29:20;;;;;;;;;;;;;;;-140.72;100.00;52536.97;6299384;22;19911;-69
2023/08/24 01:31:47;;;;;;;;;;;;;;;-140.72;100.00;52526.81;6277370;22;19961;-69
2023/08/24 01:34:13;;;;;;;;;;;;;;;-140.72;100.00;52492.31;6277193;22;19915;-69
2023/08/24 01:36:39;;;;;;;;;;;;;;;-140.72;100.00;52508.56;6276481;22;19934;-69
2023/08/24 01:39:13;;;;;;;;;;;;;;;-140.72;100.00;52559.28;6274890;22;19915;-69
2023/08/24 01:41:42;;;;;;;;;;;;;;;-140.72;100.00;52526.81;6275263;22;19954;-68
2023/08/24 01:44:09;;;;;;;;;;;;;;;-140.72;100.00;52539.00;6277468;22;19912;-68
2023/08/24 01:46:36;;;;;;;;;;;;;;;-140.72;100.00;52530.88;6277899;22;20034;-68
2023/08/24 01:49:03;;;;;;;;;;;;;;;-140.72;100.00;52506.53;6277976;22;19911;-68
2023/08/24 01:51:29;;;;;;;;;;;;;;;-140.72;100.00;52536.97;6277239;22;19947;-68
2023/08/24 01:53:54;;;;;;;;;;;;;;;-140.72;100.00;52534.94;6277532;22;19911;-68
2023/08/24 01:56:19;;;;;;;;;;;;;;;-140.72;100.00;52565.38;6277260;22;20376;-68
2023/08/24 01:58:45;;;;;;;;;;;;;;;-140.72;100.00;52534.94;6276828;22;19915;-68
2023/08/24 02:01:12;;;;;;;;;;;;;;;-140.72;100.00;52553.19;6275070;22;19918;-68
2023/08/24 02:03:39;;;;;;;;;;;;;;;-140.72;100.00;52555.22;6277049;22;19915;-68
2023/08/24 02:06:06;;;;;;;;;;;;;;;-140.72;100.00;52565.38;6277023;22;19911;-68
2023/08/24 02:08:32;;;;;;;;;;;;;;;-140.72;100.00;52526.81;6276959;22;19918;-68
2023/08/24 02:10:57;;;;;;;;;;;;;;;-140.72;100.00;52567.41;6276650;22;20304;-68
2023/08/24 02:13:22;;;;;;;;;;;;;;;-140.72;100.00;52573.50;6276418;22;20257;-68
2023/08/24 02:15:47;;;;;;;;;;;;;;;-140.72;100.00;52532.91;6274145;22;20229;-68
2023/08/24 02:18:13;;;;;;;;;;;;;;;-140.72;100.00;52557.25;6301064;22;19918;-69
2023/08/24 02:20:50;;;;;;;;;;;;;;;-140.72;100.00;52522.75;6276155;22;20342;-68
2023/08/24 02:23:15;;;;;;;;;;;;;;;-140.72;100.00;52585.66;6277110;22;19918;-68
2023/08/24 02:25:43;;;;;;;;;;;;;;;-140.72;100.00;52553.19;6276762;22;20566;-68
2023/08/24 02:28:14;;;;;;;;;;;;;;;-140.72;100.00;52559.28;6276861;22;19922;-68
2023/08/24 02:30:40;;;;;;;;;;;;;;;-140.72;100.00;52557.25;6300704;22;19912;-68
2023/08/24 02:33:07;;;;;;;;;;;;;;;-140.72;100.00;52555.22;6276301;22;19950;-68
2023/08/24 02:35:32;;;;;;;;;;;;;;;-140.72;100.00;52567.41;6275006;22;19915;-68
2023/08/24 02:38:07;;;;;;;;;;;;;;;-140.72;100.00;52581.59;6276878;22;20755;-67
2023/08/24 02:40:39;;;;;;;;;;;;;;;-140.72;100.00;52557.25;6276047;22;20399;-68
2023/08/24 02:43:05;;;;;;;;;;;;;;;-140.72;100.00;52551.16;6300666;22;19920;-68
2023/08/24 02:45:30;;;;;;;;;;;;;;;-140.72;100.00;52567.41;6276617;22;20616;-68
2023/08/24 02:47:55;;;;;;;;;;;;;;;-140.72;100.00;52545.06;6274339;22;19916;-68
2023/08/24 02:50:21;;;;;;;;;;;;;;;-140.72;100.00;52569.44;6300682;22;19911;-68
2023/08/24 02:52:46;;;;;;;;;;;;;;;-140.72;100.00;52557.25;6300488;22;19960;-68
2023/08/24 02:55:12;;;;;;;;;;;;;;;-140.72;100.00;52563.34;6274756;22;20033;-68
2023/08/24 02:57:38;;;;;;;;;;;;;;;-140.72;100.00;52595.81;6274687;22;19911;-68
2023/08/24 03:00:06;;;;;;;;;;;;;;;-140.72;100.00;52553.19;6276959;22;19911;-68
2023/08/24 03:02:38;;;;;;;;;;;;;;;-140.72;100.00;52583.63;6274114;22;19962;-68
2023/08/24 03:05:04;;;;;;;;;;;;;;;-140.72;100.00;52536.97;6276268;22;19918;-69
2023/08/24 03:07:29;;;;;;;;;;;;;;;-140.72;100.00;52565.38;6275592;22;19915;-68
2023/08/24 03:09:54;;;;;;;;;;;;;;;-140.72;100.00;52559.28;6276126;22;20042;-68
2023/08/24 03:12:20;;;;;;;;;;;;;;;-140.72;100.00;52573.50;6276034;22;19912;-68
2023/08/24 03:14:45;;;;;;;;;;;;;;;-140.72;100.00;52577.53;6276424;22;20335;-68
2023/08/24 03:17:10;;;;;;;;;;;;;;;-140.72;100.00;52599.88;6276658;22;19918;-68
2023/08/24 03:19:35;;;;;;;;;;;;;;;-140.72;100.00;52567.41;6276036;22;19918;-68
2023/08/24 03:22:01;;;;;;;;;;;;;;;-140.72;100.00;52541.03;6275449;22;20003;-68
2023/08/24 03:24:26;;;;;;;;;;;;;;;-140.72;100.00;52557.25;6275775;22;19919;-69
2023/08/24 03:26:51;;;;;;;;;;;;;;;-140.72;100.00;52587.69;6275958;22;20024;-68
2023/08/24 03:29:16;;;;;;;;;;;;;;;-140.72;100.00;52595.81;6276040;22;20659;-68
2023/08/24 03:31:42;;;;;;;;;;;;;;;-140.72;100.00;52567.41;6299620;22;20235;-68
2023/08/24 03:34:07;;;;;;;;;;;;;;;-140.72;100.00;52577.53;6299698;22;20276;-68
2023/08/24 03:36:32;;;;;;;;;;;;;;;-140.72;100.00;52575.50;6299176;22;19938;-68
2023/08/24 03:38:57;;;;;;;;;;;;;;;-140.72;100.00;52573.50;6275926;22;19912;-68
2023/08/24 03:41:23;;;;;;;;;;;;;;;-140.72;100.00;52549.13;6274292;22;19931;-69
2023/08/24 03:43:48;;;;;;;;;;;;;;;-140.72;100.00;52585.66;6275925;22;20324;-68
2023/08/24 03:46:13;;;;;;;;;;;;;;;-140.72;100.00;52577.53;6275691;22;19934;-69
2023/08/24 03:48:38;;;;;;;;;;;;;;;-140.72;100.00;52593.78;6275790;22;19916;-69
2023/08/24 03:51:03;;;;;;;;;;;;;;;-140.72;100.00;52614.06;6275484;22;19949;-69
2023/08/24 03:53:29;;;;;;;;;;;;;;;-140.72;100.00;52593.78;6277063;22;19918;-69
2023/08/24 03:55:54;;;;;;;;;;;;;;;-140.72;100.00;52575.50;6275403;22;20244;-67
2023/08/24 03:58:22;;;;;;;;;;;;;;;-140.72;100.00;52607.97;6275243;22;19911;-68
2023/08/24 04:00:47;;;;;;;;;;;;;;;-140.72;100.00;52612.03;6276555;22;19921;-69
2023/08/24 04:03:13;;;;;;;;;;;;;;;-140.72;100.00;52601.91;6302478;22;19911;-68
2023/08/24 04:05:38;;;;;;;;;;;;;;;-140.72;100.00;52569.44;6278094;22;20654;-69
2023/08/24 04:08:04;;;;;;;;;;;;;;;-140.72;100.00;52565.38;6278479;22;19927;-69
2023/08/24 04:10:41;;;;;;;;;;;;;;;-140.72;100.00;52532.91;6277828;22;20225;-68
2023/08/24 04:13:06;;;;;;;;;;;;;;;-140.72;100.00;52616.09;6277631;22;19915;-68
2023/08/24 04:15:32;;;;;;;;;;;;;;;-140.72;100.00;52597.84;6276722;22;20240;-68
2023/08/24 04:17:57;;;;;;;;;;;;;;;-140.72;100.00;52591.75;6274875;22;19912;-69
2023/08/24 04:20:22;;;;;;;;;;;;;;;-140.72;100.00;52595.81;6277587;22;19921;-69
2023/08/24 04:22:48;;;;;;;;;;;;;;;-140.72;100.00;52603.94;6277006;22;19911;-69
2023/08/24 04:25:13;;;;;;;;;;;;;;;-140.72;100.00;52626.25;6277260;22;19918;-68
2023/08/24 04:27:38;;;;;;;;;;;;;;;-140.72;100.00;52612.03;6302323;22;19918;-68
2023/08/24 04:30:04;;;;;;;;;;;;;;;-140.72;100.00;52626.25;6277349;22;19911;-75
2023/08/24 04:32:32;;;;;;;;;;;;;;;-140.72;100.00;52597.84;6278485;22;19950;-70
2023/08/24 04:34:57;;;;;;;;;;;;;;;-140.72;100.00;52636.38;6301721;22;20002;-72
2023/08/24 04:37:22;;;;;;;;;;;;;;;-140.72;100.00;52567.41;6278350;22;19953;-74
2023/08/24 04:39:48;;;;;;;;;;;;;;;-140.72;100.00;52599.88;6302348;22;19917;-74
2023/08/24 04:42:13;;;;;;;;;;;;;;;-140.72;100.00;52601.91;6276570;22;19911;-73
2023/08/24 04:44:38;;;;;;;;;;;;;;;-140.72;100.00;52622.19;6302131;22;20040;-73
2023/08/24 04:47:03;;;;;;;;;;;;;;;-140.72;100.00;52599.88;6277022;22;19918;-73
2023/08/24 04:49:32;;;;;;;;;;;;;;;-140.72;100.00;52563.34;6277961;22;19917;-72
2023/08/24 04:51:57;;;;;;;;;;;;;;;-140.72;100.00;52612.03;6276412;22;20470;-71
2023/08/24 04:54:22;;;;;;;;;;;;;;;-140.72;100.00;52605.94;6277461;22;19946;-77
2023/08/24 04:56:47;;;;;;;;;;;;;;;-140.72;100.00;52607.97;6277001;22;19911;-73
2023/08/24 04:59:13;;;;;;;;;;;;;;;-140.72;100.00;52543.03;6278849;22;20233;-74
2023/08/24 05:01:39;;;;;;;;;;;;;;;-140.72;100.00;52618.13;6276958;22;19973;-76
2023/08/24 05:04:04;;;;;;;;;;;;;;;-140.72;100.00;52636.38;6275790;22;19915;-76
2023/08/24 05:06:32;;;;;;;;;;;;;;;-140.72;100.00;52555.22;6276493;22;20269;-73
2023/08/24 05:08:57;;;;;;;;;;;;;;;-140.72;100.00;52573.50;6275510;22;19911;-70
2023/08/24 05:11:25;;;;;;;;;;;;;;;-140.72;100.00;52605.94;6277214;22;20300;-73
2023/08/24 05:13:51;;;;;;;;;;;;;;;-140.72;100.00;52589.72;6301649;22;19914;-71
2023/08/24 05:16:17;;;;;;;;;;;;;;;-140.72;100.00;52585.66;6277282;22;19915;-71
2023/08/24 05:18:43;;;;;;;;;;;;;;;-140.72;100.00;52561.31;6277172;22;19914;-70
2023/08/24 05:21:08;;;;;;;;;;;;;;;-140.72;100.00;52577.53;6275955;22;19915;-71
2023/08/24 05:23:34;;;;;;;;;;;;;;;-140.72;100.00;52610.00;6277349;22;19987;-74
2023/08/24 05:25:59;;;;;;;;;;;;;;;-140.72;100.00;52573.50;6276690;22;19922;-71
2023/08/24 05:28:28;;;;;;;;;;;;;;;-140.72;100.00;52618.13;6277394;22;19980;-71
2023/08/24 05:30:54;;;;;;;;;;;;;;;-140.72;100.00;52610.00;6277642;22;19938;-72
2023/08/24 05:33:20;;;;;;;;;;;;;;;-140.72;100.00;52567.41;6275835;22;19915;-72
2023/08/24 05:35:45;;;;;;;;;;;;;;;-140.72;100.00;52561.31;6277629;22;19919;-71
2023/08/24 05:38:10;;;;;;;;;;;;;;;-140.72;100.00;52567.41;6277400;22;20411;-71
2023/08/24 05:40:37;;;;;;;;;;;;;;;-140.72;100.00;52597.84;6277782;22;19986;-72
2023/08/24 05:43:02;;;;;;;;;;;;;;;-140.72;100.00;52524.78;6277770;22;19912;-71
2023/08/24 05:45:27;;;;;;;;;;;;;;;-140.72;100.00;52589.72;6277769;22;19911;-71
2023/08/24 05:47:52;;;;;;;;;;;;;;;-140.72;100.00;52571.47;6277687;22;19993;-71
2023/08/24 05:50:19;;;;;;;;;;;;;;;-140.72;100.00;52561.31;6277336;22;19965;-71
2023/08/24 05:52:45;;;;;;;;;;;;;;;-140.72;100.00;52571.47;6279142;22;19921;-71
2023/08/24 05:55:10;;;;;;;;;;;;;;;-140.72;100.00;52557.25;6277389;22;19986;-71
2023/08/24 05:57:36;;;;;;;;;;;;;;;-140.72;100.00;52593.78;6277021;22;19946;-71
2023/08/24 06:00:09;;;;;;;;;;;;;;;-140.72;100.00;52561.31;6277215;22;19911;-74
2023/08/24 06:02:34;;;;;;;;;;;;;;;-140.72;100.00;52530.88;6277310;22;20006;-71
2023/08/24 06:05:00;;;;;;;;;;;;;;;-140.72;100.00;52532.91;6301057;22;20355;-70
2023/08/24 06:07:25;;;;;;;;;;;;;;;-140.72;100.00;52541.03;6276706;22;19918;-68
2023/08/24 06:09:50;;;;;;;;;;;;;;;-140.72;100.00;52553.19;6277421;22;19942;-68
2023/08/24 06:12:15;;;;;;;;;;;;;;;-140.72;100.00;52577.53;6277350;22;19911;-69
2023/08/24 06:14:40;;;;;;;;;;;;;;;-140.72;100.00;52577.53;6276064;22;19965;-69
2023/08/24 06:17:06;;;;;;;;;;;;;;;-140.72;100.00;52528.84;6276983;22;19948;-68
2023/08/24 06:19:31;;;;;;;;;;;;;;;-140.72;100.00;52581.59;6277916;22;19912;-69
2023/08/24 06:21:56;;;;;;;;;;;;;;;-140.72;100.00;52545.06;6276932;22;19915;-68
2023/08/24 06:24:21;;;;;;;;;;;;;;;-140.72;100.00;52553.19;6275590;22;19918;-68
2023/08/24 06:26:47;;;;;;;;;;;;;;;-140.72;100.00;52524.78;6276837;22;20394;-69
2023/08/24 06:29:12;;;;;;;;;;;;;;;-140.72;100.00;52541.03;6301450;22;19936;-69
2023/08/24 06:31:37;;;;;;;;;;;;;;;-140.72;100.00;52557.25;6276902;22;19946;-69
2023/08/24 06:34:02;;;;;;;;;;;;;;;-140.72;100.00;52534.94;6275841;22;19918;-69
2023/08/24 06:36:29;;;;;;;;;;;;;;;-140.72;100.00;52551.16;6277087;22;19911;-69
2023/08/24 06:38:54;;;;;;;;;;;;;;;-140.72;100.00;52492.31;6277344;22;19915;-69
2023/08/24 06:41:20;;;;;;;;;;;;;;;-140.72;100.00;52551.16;6300963;22;19911;-69
2023/08/24 06:43:45;;;;;;;;;;;;;;;-140.72;100.00;52528.84;6277246;22;19911;-69
2023/08/24 06:46:11;;;;;;;;;;;;;;;-140.72;100.00;52494.34;6277420;22;19949;-70
2023/08/24 06:48:37;;;;;;;;;;;;;;;-140.72;100.00;52532.91;6277231;22;19941;-68
2023/08/24 06:51:02;;;;;;;;;;;;;;;-140.72;100.00;52512.59;6277584;22;19919;-69
2023/08/24 06:53:27;;;;;;;;;;;;;;;-140.72;100.00;52476.09;6277073;22;19915;-69
2023/08/24 06:55:56;;;;;;;;;;;;;;;-140.72;100.00;52512.59;6276171;22;19994;-68
2023/08/24 06:58:21;;;;;;;;;;;;;;;-140.72;100.00;52508.56;6276996;22;19994;-68
2023/08/24 07:00:47;;;;;;;;;;;;;;;-140.72;100.00;52492.31;6276411;22;19965;-70
2023/08/24 07:03:12;;;;;;;;;;;;;;;-140.72;100.00;52474.06;6277621;22;19912;-70
2023/08/24 07:05:37;;;;;;;;;;;;;;;-140.72;100.00;52488.25;6275435;22;19915;-69
2023/08/24 07:08:03;;;;;;;;;;;;;;;-140.72;100.00;52488.25;6277479;22;19911;-69
2023/08/24 07:10:28;;;;;;;;;;;;;;;-140.72;100.00;52514.63;6275172;22;20399;-69
2023/08/24 07:12:53;;;;;;;;;;;;;;;-140.72;100.00;52470.00;6276614;22;19915;-68
2023/08/24 07:15:19;;;;;;;;;;;;;;;-140.72;100.00;52512.59;6279472;22;20327;-68
2023/08/24 07:17:44;;;;;;;;;;;;;;;-140.72;100.00;52478.13;6279701;22;20005;-69
2023/08/24 07:20:09;;;;;;;;;;;;;;;-140.72;100.00;52504.50;6276747;22;19915;-68
2023/08/24 07:22:34;;;;;;;;;;;;;;;-140.72;100.00;52492.31;6277842;22;19994;-68
2023/08/24 07:25:04;;;;;;;;;;;;;;;-140.72;100.00;52500.44;6276812;22;20089;-71
2023/08/24 07:27:30;;;;;;;;;;;;;;;-140.72;100.00;52465.94;6274983;22;20251;-71
2023/08/24 07:29:55;;;;;;;;;;;;;;;-140.72;100.00;52459.84;6299879;22;19916;-71
2023/08/24 07:32:20;;;;;;;;;;;;;;;-140.72;100.00;52411.16;6275945;22;19987;-72
2023/08/24 07:34:45;;;;;;;;;;;;;;;-140.72;100.00;52427.38;6276318;22;19946;-71
2023/08/24 07:37:11;;;;;;;;;;;;;;;-140.72;100.00;52419.28;6275304;22;19911;-71
2023/08/24 07:39:37;;;;;;;;;;;;;;;-140.72;100.00;52396.94;6276396;22;19919;-71
2023/08/24 07:42:02;;;;;;;;;;;;;;;-140.72;100.00;52386.81;6274647;22;19911;-71
2023/08/24 07:44:28;;;;;;;;;;;;;;;-140.72;100.00;52376.66;6276715;22;19989;-71
2023/08/24 07:46:53;;;;;;;;;;;;;;;-140.72;100.00;52378.69;6276933;22;19918;-71
2023/08/24 07:49:32;;;;;;;;;;;;;;;-140.72;100.00;52366.50;6277743;22;19937;-71
2023/08/24 07:51:58;;;;;;;;;;;;;;;-140.72;100.00;52321.88;6274653;22;19915;-71
2023/08/24 07:54:23;;;;;;;;;;;;;;;-140.72;100.00;52368.53;6277239;22;19997;-71
2023/08/24 07:56:49;;;;;;;;;;;;;;;-140.72;100.00;52350.28;6277483;22;20340;-71
2023/08/24 07:59:14;;;;;;;;;;;;;;;-140.72;100.00;52348.25;6300664;22;19912;-72
2023/08/24 08:01:39;;;;;;;;;;;;;;;-140.72;100.00;52358.41;6276835;22;19918;-71
2023/08/24 08:04:04;;;;;;;;;;;;;;;-140.72;100.00;52370.56;6276633;22;19912;-71
2023/08/24 08:06:42;;;;;;;;;;;;;;;-140.72;100.00;52307.66;6275110;22;19918;-72
2023/08/24 08:09:07;;;;;;;;;;;;;;;-140.72;100.00;52327.97;6276397;22;19998;-71
2023/08/24 08:11:33;;;;;;;;;;;;;;;-140.72;100.00;52327.97;6276659;22;19942;-70
2023/08/24 08:13:58;;;;;;;;;;;;;;;-140.72;100.00;52340.13;6275079;22;20244;-72
2023/08/24 08:16:23;;;;;;;;;;;;;;;-140.72;100.00;52370.56;6276874;22;19911;-71
2023/08/24 08:18:50;;;;;;;;;;;;;;;-140.72;100.00;52323.91;6276560;22;19911;-71
2023/08/24 08:21:19;;;;;;;;;;;;;;;-140.72;100.00;52370.56;6277269;22;19986;-71
2023/08/24 08:23:58;;;;;;;;;;;;;;;-140.72;100.00;52307.66;6276456;22;20006;-71
2023/08/24 08:26:24;;;;;;;;;;;;;;;-140.72;100.00;52336.06;6275038;22;19915;-71
2023/08/24 08:28:49;;;;;;;;;;;;;;;-140.72;100.00;52354.34;6300745;22;19934;-71
2023/08/24 08:31:15;;;;;;;;;;;;;;;-140.72;100.00;52289.41;6277544;22;19934;-71
2023/08/24 08:33:40;;;;;;;;;;;;;;;-140.72;100.00;52317.81;6277766;22;19915;-70
2023/08/24 08:36:05;;;;;;;;;;;;;;;-140.72;100.00;52317.81;6277126;22;20197;-71
2023/08/24 08:38:30;;;;;;;;;;;;;;;-140.72;100.00;52362.44;6276741;22;19919;-71
2023/08/24 08:40:56;;;;;;;;;;;;;;;-140.72;100.00;52297.53;6285254;22;19939;-72
2023/08/24 08:43:25;;;;;;;;;;;;;;;-140.72;100.00;52342.16;6274893;22;20391;-71
2023/08/24 08:45:51;;;;;;;;;;;;;;;-140.72;100.00;52293.47;6277484;22;19984;-71
2023/08/24 08:48:16;;;;;;;;;;;;;;;-140.72;100.00;52342.16;6276974;22;19911;-71
2023/08/24 08:50:41;;;;;;;;;;;;;;;-140.72;100.00;52307.66;6278100;22;19934;-71
2023/08/24 08:53:07;;;;;;;;;;;;;;;-140.72;92.43;52263.03;6276959;22;19915;-71
2023/08/24 08:55:51;;;;;;;;;;;;;;;-140.72;89.49;52279.25;6277801;22;19919;-71
2023/08/24 08:58:17;;;;;;;;;;;;;;;-140.72;86.17;52309.69;6278302;22;19916;-71
2023/08/24 09:00:43;;;;;;;;;;;;;;;-140.72;87.25;52224.47;6279281;22;19949;-72
2023/08/24 09:03:08;;;;;;;;;;;;;;;-140.72;67.68;52301.59;6277540;22;19961;-71
2023/08/24 09:05:35;;;;;;;;;;;;;;;-140.72;73.62;52277.22;6277423;22;19929;-71
2023/08/24 09:08:02;;;;;;;;;;;;;;;-140.72;77.41;52244.78;6278857;22;19911;-72
2023/08/24 09:10:28;;;;;;;;;;;;;;;-140.72;83.69;52273.19;6279059;22;19949;-71
2023/08/24 09:12:53;;;;;;;;;;;;;;;-140.72;66.04;52248.81;6278691;22;19911;-71
2023/08/24 09:15:34;;;;;;;;;;;;;;;-140.72;60.93;52238.69;6276504;22;19911;-72
2023/08/24 09:18:00;;;;;;;;;;;;;;;-140.72;52.61;52273.19;6278720;22;19918;-71
2023/08/24 09:20:27;;;;;;;;;;;;;;;-140.72;37.75;52236.66;6278461;22;19911;-71
2023/08/24 09:22:54;;;;;;;;;;;;;;;-140.72;35.83;52263.03;6276469;22;19934;-71
2023/08/24 09:25:20;;;;;;;;;;;;;;;-140.72;51.77;52287.38;6276632;22;19918;-71
2023/08/24 09:27:45;;;;;;;;;;;;;;;-140.72;78.98;52330.00;6276823;22;19911;-71
2023/08/24 09:30:11;;;;;;;;;;;;;;;-140.72;100.00;52342.16;6276917;22;19918;-71
2023/08/24 09:32:36;;;;;;;;;;;;;;;-140.72;100.00;52275.19;6276270;22;20277;-72
2023/08/24 09:35:03;;;;;;;;;;;;;;;-140.72;100.00;52291.44;6277957;22;19911;-71
2023/08/24 09:37:33;;;;;;;;;;;;;;;-140.72;100.00;52313.75;6278446;22;19938;-72
2023/08/24 09:40:07;;;;;;;;;;;;;;;-140.72;100.00;52321.88;6276330;22;19981;-71
2023/08/24 09:42:37;;;;;;;;;;;;;;;-140.72;100.00;52321.88;6277256;22;20364;-71
2023/08/24 09:45:04;;;;;;;;;;;;;;;-140.72;100.00;52330.00;6278114;22;19911;-71
2023/08/24 09:47:36;;;;;;;;;;;;;;;-140.72;100.00;52388.84;6277287;22;19911;-71
2023/08/24 09:50:02;;;;;;;;;;;;;;;-140.72;100.00;52346.22;6275374;22;19912;-71
2023/08/24 09:52:31;;;;;;;;;;;;;;;-140.72;100.00;52370.56;6276087;22;19937;-72
2023/08/24 09:54:58;;;;;;;;;;;;;;;-140.72;100.00;52394.91;6277657;22;19993;-71
2023/08/24 09:57:23;;;;;;;;;;;;;;;-140.72;100.00;52386.81;6275976;22;19965;-71
2023/08/24 09:59:49;;;;;;;;;;;;;;;-140.72;100.00;52376.66;6276926;22;19915;-71
2023/08/24 10:02:18;;;;;;;;;;;;;;;-140.72;100.00;52411.16;6277128;22;19915;-73
2023/08/24 10:04:43;;;;;;;;;;;;;;;-140.72;100.00;52405.06;6276977;22;20021;-72
2023/08/24 10:07:15;;;;;;;;;;;;;;;-140.72;100.00;52407.09;6276505;22;20284;-71
2023/08/24 10:09:59;;;;;;;;;;;;;;;-140.72;100.00;52429.41;6275779;22;19911;-72
2023/08/24 10:12:31;;;;;;;;;;;;;;;-140.72;100.00;52415.22;6274763;22;19980;-70
2023/08/24 10:15:01;;;;;;;;;;;;;;;-140.72;100.00;52421.28;6277451;22;19965;-72
2023/08/24 10:17:26;;;;;;;;;;;;;;;-140.72;100.00;52405.06;6275927;22;19912;-73
2023/08/24 10:19:51;;;;;;;;;;;;;;;-140.72;100.00;52415.22;6276366;22;20033;-71
2023/08/24 10:22:18;;;;;;;;;;;;;;;-140.72;100.00;52407.09;6277322;22;19916;-71
2023/08/24 10:24:44;;;;;;;;;;;;;;;-140.72;100.00;52405.06;6276753;22;19911;-71
2023/08/24 10:27:09;;;;;;;;;;;;;;;-140.72;100.00;52378.69;6277129;22;19912;-77
2023/08/24 10:29:35;;;;;;;;;;;;;;;-140.72;100.00;52396.94;6276284;22;19961;-71
2023/08/24 10:32:01;;;;;;;;;;;;;;;-140.72;100.00;52374.63;6277374;22;19915;-72
2023/08/24 10:34:27;;;;;;;;;;;;;;;-140.72;100.00;52392.88;6276313;22;20158;-69
2023/08/24 10:36:53;;;;;;;;;;;;;;;-140.72;100.00;52372.59;6277719;22;20296;-73
2023/08/24 10:39:26;;;;;;;;;;;;;;;-140.72;100.00;52364.47;6277168;22;20219;-71
2023/08/24 10:41:52;;;;;;;;;;;;;;;-140.72;100.00;52374.63;6275833;22;19998;-71
2023/08/24 10:44:39;;;;;;;;;;;;;;;-140.72;100.00;52360.44;6300999;22;19994;-71
2023/08/24 10:47:07;;;;;;;;;;;;;;;-140.72;100.00;52346.22;6277083;22;19981;-71
2023/08/24 10:49:33;;;;;;;;;;;;;;;-140.72;100.00;52330.00;6275652;22;19920;-70
2023/08/24 10:52:16;;;;;;;;;;;;;;;-140.72;100.00;52309.69;6275575;22;19911;-71
2023/08/24 10:54:45;;;;;;;;;;;;;;;-140.72;100.00;52352.31;6276150;22;20343;-72
2023/08/24 10:57:17;;;;;;;;;;;;;;;-140.72;100.00;52321.88;6277820;22;19918;-72
2023/08/24 10:59:43;;;;;;;;;;;;;;;-140.72;100.00;52305.63;6275869;22;19911;-72
2023/08/24 11:02:17;;;;;;;;;;;;;;;-140.72;100.00;52307.66;6276955;22;19989;-71
2023/08/24 11:05:02;;;;;;;;;;;;;;;-140.72;100.00;52342.16;6274902;22;19922;-71
2023/08/24 11:07:27;;;;;;;;;;;;;;;-140.72;100.00;52338.09;6274192;22;19922;-71
2023/08/24 11:09:52;;;;;;;;;;;;;;;-140.72;100.00;52307.66;6275080;22;19912;-71
2023/08/24 11:12:20;;;;;;;;;;;;;;;-140.72;100.00;52332.03;6300355;22;19911;-72
2023/08/24 11:14:51;;;;;;;;;;;;;;;-140.72;100.00;52346.22;6300398;22;19911;-71
2023/08/24 11:17:20;;;;;;;;;;;;;;;-140.72;100.00;52330.00;6274450;22;20312;-71
2023/08/24 11:19:49;;;;;;;;;;;;;;;-140.72;100.00;52299.56;6276929;22;19938;-71
2023/08/24 11:22:14;;;;;;;;;;;;;;;-140.72;100.00;52265.06;6276880;22;20386;-71
2023/08/24 11:24:40;;;;;;;;;;;;;;;-140.72;100.00;52283.31;6275055;22;19915;-72
2023/08/24 11:27:05;;;;;;;;;;;;;;;-140.72;100.00;52323.91;6301130;22;20320;-72
2023/08/24 11:29:30;;;;;;;;;;;;;;;-140.72;100.00;52265.06;6275789;22;19946;-72
2023/08/24 11:31:57;;;;;;;;;;;;;;;-140.72;100.00;52242.75;6276176;22;19915;-72
2023/08/24 11:34:22;;;;;;;;;;;;;;;-140.72;100.00;52273.19;6275571;22;19912;-72
2023/08/24 11:36:48;;;;;;;;;;;;;;;-140.72;99.46;52252.88;6275660;22;19914;-71
2023/08/24 11:39:20;;;;;;;;;;;;;;;-140.72;87.04;52183.91;6277483;22;19968;-72
2023/08/24 11:42:02;;;;;;;;;;;;;;;-140.72;53.63;52183.91;6275542;22;19939;-72
2023/08/24 11:44:28;;;;;;;;;;;;;;;-140.72;8.92;52173.75;6275020;22;19911;-72
2023/08/24 11:46:55;;;;;;;;;;;;;;;-140.72;0.47;52185.94;6274931;22;19938;-72
2023/08/24 11:49:21;;;;;;;;;;;;;;;-140.72;5.77;52204.19;6275488;22;20324;-72
2023/08/24 11:51:49;;;;;;;;;;;;;;;-140.72;0.00;52226.50;6275567;22;20370;-72
2023/08/24 11:54:16;;;;;;;;;;;;;;;-140.72;0.00;52220.41;6276951;22;19986;-72
2023/08/24 11:56:42;;;;;;;;;;;;;;;-140.72;4.26;52261.00;6277193;22;19911;-72
2023/08/24 11:59:10;;;;;;;;;;;;;;;-140.72;5.90;52200.13;6275715;22;19954;-71
2023/08/24 12:01:35;;;;;;;;;;;;;;;-140.72;12.65;52216.34;6277098;22;20305;-72
2023/08/24 12:04:01;;;;;;;;;;;;;;;-140.72;3.25;52179.84;6276593;22;19937;-70
2023/08/24 12:06:26;;;;;;;;;;;;;;;-140.72;0.00;52175.78;6277032;22;19915;-70
2023/08/24 12:08:53;;;;;;;;;;;;;;;-140.72;0.00;52084.47;6276846;22;19918;-71
2023/08/24 12:11:19;;;;;;;;;;;;;;;-140.72;0.00;52076.34;6275418;22;19912;-71
2023/08/24 12:13:51;;;;;;;;;;;;;;;-140.72;0.00;52052.00;6275015;22;19911;-71
2023/08/24 12:16:17;;;;;;;;;;;;;;;-140.72;0.00;52033.75;6275422;22;19915;-71